Time;durP1;ratioP1;P1;durP2;ratioP2;P2;SDS_P1;SDS_P2;PMS_P1;PMS_P2;Temp;Humidity;BMP_temperature;BMP_pressure;BME280_temperature;BME280_humidity;BME280_pressure;Samples;Min_cycle;Max_cycle;Signal;HPM_P1;HPM_P2
2022/11/19 00:00:52;;;;;;;21.40;12.07;;;;;;;;;;5021752;28;20056;-73
2022/11/19 00:03:20;;;;;;;22.75;11.85;;;;;;;;;;5025023;28;20050;-72
2022/11/19 00:05:47;;;;;;;22.73;11.35;;;;;;;;;;5040249;28;20053;-73
2022/11/19 00:08:15;;;;;;;24.83;11.93;;;;;;;;;;5025509;28;20057;-73
2022/11/19 00:10:42;;;;;;;19.33;12.00;;;;;;;;;;5025874;28;20049;-72
2022/11/19 00:13:09;;;;;;;21.05;11.82;;;;;;;;;;5022430;28;20089;-73
2022/11/19 00:15:36;;;;;;;21.70;10.73;;;;;;;;;;5024176;28;20057;-72
2022/11/19 00:18:03;;;;;;;16.95;11.35;;;;;;;;;;5020621;28;20484;-72
2022/11/19 00:20:30;;;;;;;23.08;12.25;;;;;;;;;;5021632;28;20104;-72
2022/11/19 00:22:56;;;;;;;18.58;10.60;;;;;;;;;;5021577;28;20108;-72
2022/11/19 00:25:24;;;;;;;19.25;12.75;;;;;;;;;;5034376;28;20049;-73
2022/11/19 00:27:51;;;;;;;21.00;12.55;;;;;;;;;;5025900;28;20054;-71
2022/11/19 00:30:18;;;;;;;18.45;11.07;;;;;;;;;;5023726;28;20054;-72
2022/11/19 00:33:04;;;;;;;19.42;10.90;;;;;;;;;;5026199;28;20974;-71
2022/11/19 00:35:31;;;;;;;21.30;12.13;;;;;;;;;;5018193;28;20500;-70
2022/11/19 00:37:57;;;;;;;19.20;11.68;;;;;;;;;;5026696;28;20050;-72
2022/11/19 00:40:23;;;;;;;19.42;11.57;;;;;;;;;;5030219;28;20057;-72
2022/11/19 00:45:35;;;;;;;20.83;11.32;;;;;;;;;;5028700;28;20460;-72
2022/11/19 00:48:01;;;;;;;24.42;11.32;;;;;;;;;;5022243;28;20061;-72
2022/11/19 00:50:27;;;;;;;19.05;11.68;;;;;;;;;;5020985;28;20156;-72
2022/11/19 00:52:53;;;;;;;23.15;11.98;;;;;;;;;;5019500;28;20100;-71
2022/11/19 00:55:20;;;;;;;23.73;12.18;;;;;;;;;;5021852;28;20065;-72
2022/11/19 00:57:46;;;;;;;19.08;11.70;;;;;;;;;;5021285;28;20057;-73
2022/11/19 01:00:13;;;;;;;19.95;12.55;;;;;;;;;;5021504;28;20058;-71
2022/11/19 01:02:39;;;;;;;25.02;13.90;;;;;;;;;;5021268;28;20058;-70
2022/11/19 01:05:05;;;;;;;18.23;12.18;;;;;;;;;;5017697;28;20057;-73
2022/11/19 01:07:31;;;;;;;19.60;12.05;;;;;;;;;;5021285;28;20100;-72
2022/11/19 01:09:58;;;;;;;20.10;11.73;;;;;;;;;;5018710;28;20140;-71
2022/11/19 01:12:24;;;;;;;22.67;12.15;;;;;;;;;;5039985;28;20434;-72
2022/11/19 01:14:50;;;;;;;22.75;11.30;;;;;;;;;;5024706;28;20527;-72
2022/11/19 01:17:17;;;;;;;18.38;12.73;;;;;;;;;;5021502;28;20149;-71
2022/11/19 01:19:43;;;;;;;20.33;13.23;;;;;;;;;;5020796;28;20540;-72
2022/11/19 01:22:09;;;;;;;18.05;12.80;;;;;;;;;;5021812;28;20042;-72
2022/11/19 01:24:36;;;;;;;21.40;13.30;;;;;;;;;;5019831;28;20050;-71
2022/11/19 01:27:02;;;;;;;19.73;11.95;;;;;;;;;;5018292;28;20050;-73
2022/11/19 01:29:28;;;;;;;22.10;14.45;;;;;;;;;;5022582;28;20471;-73
2022/11/19 01:31:55;;;;;;;24.17;13.38;;;;;;;;;;5042518;28;20061;-70
2022/11/19 01:34:21;;;;;;;21.33;12.25;;;;;;;;;;5030108;28;20150;-72
2022/11/19 01:36:47;;;;;;;21.73;13.10;;;;;;;;;;5025125;28;20053;-71
2022/11/19 01:39:13;;;;;;;24.17;14.07;;;;;;;;;;5017013;28;20084;-72
2022/11/19 01:41:40;;;;;;;22.58;13.27;;;;;;;;;;5025466;28;20053;-71
2022/11/19 01:44:07;;;;;;;19.80;13.00;;;;;;;;;;5021153;28;20112;-71
2022/11/19 01:46:35;;;;;;;23.83;13.43;;;;;;;;;;5040047;28;20056;-71
2022/11/19 01:49:15;;;;;;;22.13;13.80;;;;;;;;;;5043382;28;20053;-69
2022/11/19 01:51:56;;;;;;;22.58;12.95;;;;;;;;;;5042434;28;20080;-69
2022/11/19 01:54:33;;;;;;;23.25;14.27;;;;;;;;;;5025990;28;20057;-71
2022/11/19 01:57:05;;;;;;;24.05;15.00;;;;;;;;;;5024270;28;20456;-72
2022/11/19 01:59:32;;;;;;;21.45;13.52;;;;;;;;;;5024200;28;20053;-72
2022/11/19 02:01:58;;;;;;;20.42;13.75;;;;;;;;;;5019820;28;20607;-71
2022/11/19 02:04:26;;;;;;;21.80;14.48;;;;;;;;;;5021438;28;20046;-70
2022/11/19 02:06:52;;;;;;;23.88;14.35;;;;;;;;;;5023295;28;20058;-70
2022/11/19 02:09:19;;;;;;;21.83;12.90;;;;;;;;;;5023515;28;20449;-71
2022/11/19 02:12:08;;;;;;;26.63;15.98;;;;;;;;;;5023989;28;20140;-72
2022/11/19 02:14:43;;;;;;;23.08;15.50;;;;;;;;;;5022757;28;20054;-72
2022/11/19 02:17:24;;;;;;;23.70;15.38;;;;;;;;;;5024059;28;20053;-72
2022/11/19 02:20:13;;;;;;;22.35;13.65;;;;;;;;;;5024399;28;20499;-72
2022/11/19 02:22:58;;;;;;;26.52;16.05;;;;;;;;;;5036889;28;20060;-71
2022/11/19 02:25:31;;;;;;;26.40;16.17;;;;;;;;;;5037868;28;20058;-71
2022/11/19 02:28:00;;;;;;;24.27;15.95;;;;;;;;;;5040622;28;20049;-71
2022/11/19 02:30:32;;;;;;;25.55;15.73;;;;;;;;;;5040325;28;20224;-70
2022/11/19 02:33:03;;;;;;;25.63;15.75;;;;;;;;;;5039532;28;20057;-72
2022/11/19 02:35:45;;;;;;;24.75;15.60;;;;;;;;;;5039901;28;20048;-70
2022/11/19 02:38:30;;;;;;;24.85;15.25;;;;;;;;;;5040562;28;20409;-71
2022/11/19 02:46:50;;;;;;;27.88;16.45;;;;;;;;;;5007428;28;20132;-71
2022/11/19 02:49:18;;;;;;;27.63;17.48;;;;;;;;;;5040294;28;20579;-72
2022/11/19 02:51:46;;;;;;;31.45;17.55;;;;;;;;;;5038306;28;20077;-71
2022/11/19 02:54:15;;;;;;;31.25;17.45;;;;;;;;;;5040119;28;20050;-71
2022/11/19 02:56:50;;;;;;;29.20;17.42;;;;;;;;;;5038319;28;20049;-71
2022/11/19 03:04:51;;;;;;;30.83;18.50;;;;;;;;;;5019685;28;20077;-72
2022/11/19 03:07:18;;;;;;;31.10;18.83;;;;;;;;;;5021823;28;20061;-72
2022/11/19 03:09:49;;;;;;;28.23;18.02;;;;;;;;;;5018225;28;20626;-71
2022/11/19 03:12:30;;;;;;;27.50;17.88;;;;;;;;;;5023613;28;20089;-71
2022/11/19 03:18:04;;;;;;;28.83;19.38;;;;;;;;;;5018889;28;20141;-71
2022/11/19 03:20:37;;;;;;;28.85;17.33;;;;;;;;;;5023117;28;20255;-72
2022/11/19 03:23:12;;;;;;;28.70;18.33;;;;;;;;;;5017582;28;20512;-72
2022/11/19 03:25:54;;;;;;;23.88;15.63;;;;;;;;;;5021923;28;20053;-72
2022/11/19 03:28:25;;;;;;;28.75;18.55;;;;;;;;;;5020238;28;20049;-70
2022/11/19 03:30:54;;;;;;;27.85;18.00;;;;;;;;;;5023119;28;20066;-72
2022/11/19 03:33:29;;;;;;;27.67;18.13;;;;;;;;;;5023486;28;20128;-71
2022/11/19 03:35:56;;;;;;;;;;;;;;;;;;5032683;28;20337;-72
2022/11/19 03:38:22;;;;;;;;;;;;;;;;;;5023234;28;46789;-71
2022/11/19 03:40:49;;;;;;;24.42;15.50;;;;;;;;;;5027645;28;43819;-70
2022/11/19 03:43:18;;;;;;;26.38;16.50;;;;;;;;;;5032143;28;20507;-72
2022/11/19 03:45:46;;;;;;;24.42;17.08;;;;;;;;;;5030251;28;20108;-72
2022/11/19 03:48:14;;;;;;;26.00;15.98;;;;;;;;;;5022066;28;20424;-70
2022/11/19 03:50:44;;;;;;;23.88;15.73;;;;;;;;;;5020164;28;20097;-69
2022/11/19 03:53:11;;;;;;;23.75;15.23;;;;;;;;;;5039274;28;20049;-72
2022/11/19 03:55:46;;;;;;;24.65;16.20;;;;;;;;;;5023336;28;20373;-71
2022/11/19 03:58:12;;;;;;;24.65;16.35;;;;;;;;;;5017857;28;20077;-70
2022/11/19 04:00:38;;;;;;;24.85;16.13;;;;;;;;;;5018077;28;20061;-73
2022/11/19 04:03:05;;;;;;;25.55;16.50;;;;;;;;;;5023558;28;20066;-71
2022/11/19 04:05:31;;;;;;;23.02;15.52;;;;;;;;;;5018093;28;20066;-72
2022/11/19 04:07:57;;;;;;;25.95;17.20;;;;;;;;;;5017217;28;20109;-71
2022/11/19 04:10:23;;;;;;;25.95;16.27;;;;;;;;;;5008763;28;20093;-70
2022/11/19 04:12:50;;;;;;;23.40;15.65;;;;;;;;;;5015072;28;20189;-72
2022/11/19 04:15:16;;;;;;;24.48;15.05;;;;;;;;;;5022557;28;20514;-71
2022/11/19 04:17:42;;;;;;;26.17;15.75;;;;;;;;;;5013619;28;20057;-71
2022/11/19 04:20:09;;;;;;;24.50;16.35;;;;;;;;;;5015170;28;20054;-72
2022/11/19 04:22:36;;;;;;;27.85;17.17;;;;;;;;;;5007950;28;20070;-72
2022/11/19 04:25:02;;;;;;;25.55;16.10;;;;;;;;;;5010796;28;20593;-70
2022/11/19 04:27:29;;;;;;;27.50;16.92;;;;;;;;;;5004114;28;20501;-72
2022/11/19 04:29:55;;;;;;;23.10;15.52;;;;;;;;;;5017648;28;20540;-72
2022/11/19 04:32:21;;;;;;;25.00;14.95;;;;;;;;;;5003870;28;20054;-70
2022/11/19 04:34:48;;;;;;;24.42;16.50;;;;;;;;;;5003721;28;20054;-72
2022/11/19 04:37:14;;;;;;;24.42;15.00;;;;;;;;;;5009078;28;20204;-73
2022/11/19 04:39:40;;;;;;;27.40;16.05;;;;;;;;;;5009640;28;20551;-70
2022/11/19 04:42:08;;;;;;;24.52;15.63;;;;;;;;;;5009995;28;20534;-70
2022/11/19 04:44:34;;;;;;;26.70;16.20;;;;;;;;;;5009215;28;20073;-72
2022/11/19 04:47:00;;;;;;;26.75;16.38;;;;;;;;;;5016741;28;20479;-72
2022/11/19 04:49:26;;;;;;;24.98;15.73;;;;;;;;;;5003368;28;20065;-71
2022/11/19 04:51:53;;;;;;;24.38;15.02;;;;;;;;;;5003129;28;20101;-72
2022/11/19 04:54:19;;;;;;;23.35;15.05;;;;;;;;;;5002934;28;20050;-71
2022/11/19 04:56:45;;;;;;;21.30;14.60;;;;;;;;;;5014188;28;20060;-72
2022/11/19 04:59:11;;;;;;;25.17;15.48;;;;;;;;;;5017980;28;20050;-70
2022/11/19 05:01:38;;;;;;;27.52;16.95;;;;;;;;;;5008763;28;20492;-68
2022/11/19 05:04:04;;;;;;;22.75;15.20;;;;;;;;;;5022801;28;20046;-72
2022/11/19 05:06:30;;;;;;;27.27;16.50;;;;;;;;;;5004062;28;20088;-71
2022/11/19 05:08:57;;;;;;;26.38;14.48;;;;;;;;;;5002394;28;20057;-72
2022/11/19 05:11:23;;;;;;;23.90;15.90;;;;;;;;;;5003580;28;20082;-73
2022/11/19 05:13:49;;;;;;;21.25;14.70;;;;;;;;;;5017979;28;20050;-73
2022/11/19 05:16:16;;;;;;;25.08;15.73;;;;;;;;;;5014917;28;20050;-68
2022/11/19 05:18:42;;;;;;;26.17;15.57;;;;;;;;;;5023118;28;20057;-72
2022/11/19 05:21:08;;;;;;;23.67;15.40;;;;;;;;;;5006574;28;20516;-71
2022/11/19 05:23:34;;;;;;;22.30;14.43;;;;;;;;;;5006720;28;20058;-74
2022/11/19 05:26:01;;;;;;;25.70;16.90;;;;;;;;;;5002514;28;20101;-72
2022/11/19 05:28:27;;;;;;;22.45;14.80;;;;;;;;;;5011750;28;20161;-71
2022/11/19 05:31:05;;;;;;;24.10;14.55;;;;;;;;;;5006217;28;20058;-72
2022/11/19 05:33:31;;;;;;;23.98;14.93;;;;;;;;;;5019706;28;20058;-71
2022/11/19 05:35:59;;;;;;;24.20;15.55;;;;;;;;;;5015200;28;20060;-72
2022/11/19 05:38:26;;;;;;;23.67;14.30;;;;;;;;;;5017249;28;20064;-70
2022/11/19 05:40:52;;;;;;;22.15;14.20;;;;;;;;;;5007264;28;20145;-71
2022/11/19 05:43:18;;;;;;;25.02;14.98;;;;;;;;;;5017363;28;20049;-73
2022/11/19 05:45:45;;;;;;;21.35;14.32;;;;;;;;;;5008327;28;20095;-72
2022/11/19 05:48:11;;;;;;;23.40;15.10;;;;;;;;;;5005777;28;20055;-68
2022/11/19 05:50:39;;;;;;;24.85;14.65;;;;;;;;;;5003450;28;20047;-70
2022/11/19 05:53:06;;;;;;;23.58;14.52;;;;;;;;;;5002003;28;20054;-73
2022/11/19 05:55:32;;;;;;;25.50;15.15;;;;;;;;;;5004895;28;20064;-72
2022/11/19 05:57:58;;;;;;;23.33;14.30;;;;;;;;;;5012580;28;20093;-73
2022/11/19 06:00:24;;;;;;;23.40;14.50;;;;;;;;;;5009924;28;20058;-73
2022/11/19 06:02:51;;;;;;;21.60;14.85;;;;;;;;;;5018613;28;20057;-72
2022/11/19 06:05:17;;;;;;;21.85;14.48;;;;;;;;;;5002234;28;20524;-72
2022/11/19 06:07:44;;;;;;;24.45;15.10;;;;;;;;;;5001807;28;20358;-72
2022/11/19 06:10:10;;;;;;;21.92;13.85;;;;;;;;;;5001824;28;20046;-71
2022/11/19 06:12:37;;;;;;;22.88;14.40;;;;;;;;;;5002522;28;20043;-70
2022/11/19 06:15:10;;;;;;;24.40;13.93;;;;;;;;;;5005788;28;20055;-71
2022/11/19 06:17:37;;;;;;;21.00;13.80;;;;;;;;;;5020277;28;20080;-73
2022/11/19 06:20:03;;;;;;;20.35;13.65;;;;;;;;;;5019914;28;20100;-72
2022/11/19 06:22:29;;;;;;;23.17;14.68;;;;;;;;;;5024775;28;20053;-72
2022/11/19 06:24:56;;;;;;;22.23;13.23;;;;;;;;;;5024964;28;20076;-74
2022/11/19 06:27:22;;;;;;;23.15;13.32;;;;;;;;;;5023034;28;20064;-72
2022/11/19 06:29:48;;;;;;;21.15;13.52;;;;;;;;;;5023398;28;20108;-71
2022/11/19 06:32:21;;;;;;;22.15;13.95;;;;;;;;;;5024205;28;20062;-73
2022/11/19 06:34:47;;;;;;;21.77;13.63;;;;;;;;;;5005367;28;20505;-70
2022/11/19 06:37:13;;;;;;;20.75;12.90;;;;;;;;;;5004492;28;20046;-68
2022/11/19 06:39:40;;;;;;;26.02;15.48;;;;;;;;;;5005500;28;20051;-72
2022/11/19 06:44:52;;;;;;;21.75;14.25;;;;;;;;;;5024946;28;20038;-71
2022/11/19 06:47:18;;;;;;;20.50;13.85;;;;;;;;;;5018470;28;20058;-70
2022/11/19 06:49:44;;;;;;;23.58;14.93;;;;;;;;;;5013236;28;20428;-72
2022/11/19 06:52:11;;;;;;;24.63;13.73;;;;;;;;;;5004644;28;20054;-70
2022/11/19 06:54:37;;;;;;;20.42;13.77;;;;;;;;;;5011455;28;20050;-73
2022/11/19 06:57:08;;;;;;;25.27;14.73;;;;;;;;;;5006220;28;20269;-71
2022/11/19 06:59:34;;;;;;;23.17;14.00;;;;;;;;;;5011009;28;20058;-71
2022/11/19 07:02:01;;;;;;;20.77;12.18;;;;;;;;;;5009594;28;20055;-71
2022/11/19 07:04:27;;;;;;;27.85;15.55;;;;;;;;;;5020101;28;20173;-72
2022/11/19 07:06:53;;;;;;;22.08;13.25;;;;;;;;;;5011389;28;20524;-73
2022/11/19 07:09:20;;;;;;;23.73;12.55;;;;;;;;;;5013331;28;20485;-72
2022/11/19 07:11:46;;;;;;;23.33;14.40;;;;;;;;;;5007975;28;20054;-70
2022/11/19 07:14:13;;;;;;;26.02;15.43;;;;;;;;;;5004249;28;20117;-70
2022/11/19 07:16:39;;;;;;;24.65;15.38;;;;;;;;;;5004289;28;20538;-73
2022/11/19 07:19:06;;;;;;;24.67;14.18;;;;;;;;;;5003674;28;20058;-72
2022/11/19 07:21:33;;;;;;;22.88;14.40;;;;;;;;;;5018130;28;20556;-72
2022/11/19 07:24:00;;;;;;;23.98;14.07;;;;;;;;;;5008399;28;20046;-72
2022/11/19 07:26:26;;;;;;;20.48;12.18;;;;;;;;;;5007038;28;20057;-72
2022/11/19 07:28:53;;;;;;;21.90;13.57;;;;;;;;;;5002321;28;20141;-72
2022/11/19 07:31:19;;;;;;;19.30;12.90;;;;;;;;;;5016483;28;20497;-72
2022/11/19 07:33:45;;;;;;;21.35;13.75;;;;;;;;;;5020817;28;20520;-73
2022/11/19 07:36:12;;;;;;;22.02;14.00;;;;;;;;;;5003801;28;20145;-70
2022/11/19 07:38:43;;;;;;;19.48;12.68;;;;;;;;;;5018148;28;20140;-71
2022/11/19 07:43:54;;;;;;;20.58;12.63;;;;;;;;;;5003365;28;20050;-70
2022/11/19 07:46:21;;;;;;;21.05;12.88;;;;;;;;;;5003670;28;20054;-71
2022/11/19 07:48:50;;;;;;;23.00;13.10;;;;;;;;;;5009877;28;20144;-71
2022/11/19 07:51:16;;;;;;;21.55;13.43;;;;;;;;;;5007539;28;20038;-71
2022/11/19 07:53:43;;;;;;;23.45;13.80;;;;;;;;;;5022161;28;20568;-71
2022/11/19 07:56:09;;;;;;;24.60;15.73;;;;;;;;;;5008288;28;20128;-69
2022/11/19 07:58:36;;;;;;;24.42;14.68;;;;;;;;;;5019519;28;20128;-71
2022/11/19 08:01:06;;;;;;;22.02;14.02;;;;;;;;;;5007176;28;20065;-71
2022/11/19 08:03:32;;;;;;;22.92;14.63;;;;;;;;;;5008771;28;20206;-71
2022/11/19 08:06:01;;;;;;;23.45;15.18;;;;;;;;;;5005042;28;20387;-71
2022/11/19 08:08:27;;;;;;;24.70;14.88;;;;;;;;;;5011749;28;20218;-71
2022/11/19 08:10:53;;;;;;;22.85;14.30;;;;;;;;;;5012625;28;20655;-70
2022/11/19 08:13:19;;;;;;;22.15;14.35;;;;;;;;;;5020993;28;20469;-71
2022/11/19 08:15:46;;;;;;;26.30;16.13;;;;;;;;;;5023082;28;20093;-71
2022/11/19 08:18:12;;;;;;;25.05;15.13;;;;;;;;;;5015299;28;20550;-71
2022/11/19 08:20:42;;;;;;;21.92;14.75;;;;;;;;;;5005922;28;20082;-72
2022/11/19 08:23:09;;;;;;;23.13;14.63;;;;;;;;;;5003079;28;20053;-72
2022/11/19 08:25:36;;;;;;;24.38;15.02;;;;;;;;;;5038035;28;20088;-72
2022/11/19 08:28:03;;;;;;;24.45;14.75;;;;;;;;;;5003186;28;20051;-74
2022/11/19 08:30:29;;;;;;;22.17;13.93;;;;;;;;;;5012807;28;20057;-70
2022/11/19 08:32:56;;;;;;;24.35;14.15;;;;;;;;;;5016147;28;20046;-73
2022/11/19 08:35:23;;;;;;;21.50;13.38;;;;;;;;;;5017728;28;20077;-73
2022/11/19 08:37:50;;;;;;;24.23;14.98;;;;;;;;;;5002826;28;20133;-71
2022/11/19 08:40:17;;;;;;;23.38;13.40;;;;;;;;;;5002406;28;20543;-72
2022/11/19 08:43:01;;;;;;;22.13;13.57;;;;;;;;;;5017964;28;20844;-69
2022/11/19 08:45:37;;;;;;;22.25;13.18;;;;;;;;;;5012759;28;20050;-72
2022/11/19 08:48:05;;;;;;;23.50;14.25;;;;;;;;;;5011190;28;20049;-72
2022/11/19 08:50:32;;;;;;;21.33;12.35;;;;;;;;;;5013543;28;20054;-69
2022/11/19 08:53:03;;;;;;;20.92;12.75;;;;;;;;;;5004676;28;20137;-72
2022/11/19 08:55:30;;;;;;;18.88;12.23;;;;;;;;;;5019177;28;20062;-72
2022/11/19 08:58:03;;;;;;;19.35;11.90;;;;;;;;;;5003034;28;20062;-74
2022/11/19 09:00:30;;;;;;;21.50;12.50;;;;;;;;;;5008743;28;20057;-73
2022/11/19 09:02:56;;;;;;;20.73;13.20;;;;;;;;;;5016686;28;20058;-72
2022/11/19 09:05:22;;;;;;;21.05;12.25;;;;;;;;;;5019537;28;20538;-71
2022/11/19 09:07:49;;;;;;;17.33;10.40;;;;;;;;;;5003665;28;20133;-72
2022/11/19 09:10:16;;;;;;;18.83;12.57;;;;;;;;;;5016093;28;20054;-71
2022/11/19 09:12:42;;;;;;;20.50;12.32;;;;;;;;;;5007154;28;20055;-72
2022/11/19 09:15:09;;;;;;;18.25;12.25;;;;;;;;;;5010671;28;20457;-72
2022/11/19 09:17:36;;;;;;;18.13;11.52;;;;;;;;;;5006394;28;20050;-73
2022/11/19 09:20:09;;;;;;;21.80;11.80;;;;;;;;;;5012315;28;20046;-73
2022/11/19 09:22:36;;;;;;;18.95;11.93;;;;;;;;;;5023112;28;20104;-72
2022/11/19 09:25:03;;;;;;;21.75;11.93;;;;;;;;;;5014622;28;20054;-72
2022/11/19 09:27:29;;;;;;;19.30;11.88;;;;;;;;;;5015891;28;20452;-71
2022/11/19 09:29:55;;;;;;;17.63;11.02;;;;;;;;;;5020930;28;20060;-74
2022/11/19 09:32:22;;;;;;;15.43;9.38;;;;;;;;;;5019354;28;20062;-71
2022/11/19 09:34:50;;;;;;;19.85;11.70;;;;;;;;;;5002564;28;20176;-74
2022/11/19 09:37:17;;;;;;;19.27;11.65;;;;;;;;;;5015146;28;20103;-74
2022/11/19 09:39:43;;;;;;;21.33;11.93;;;;;;;;;;5022159;28;20463;-69
2022/11/19 09:42:15;;;;;;;59.88;15.35;;;;;;;;;;5022800;28;20551;-74
2022/11/19 09:44:51;;;;;;;22.83;11.75;;;;;;;;;;5018756;28;20151;-71
2022/11/19 09:47:20;;;;;;;38.83;16.42;;;;;;;;;;5042338;28;20049;-72
2022/11/19 09:50:05;;;;;;;22.42;11.50;;;;;;;;;;5051337;28;20058;-73
2022/11/19 09:52:35;;;;;;;14.95;9.70;;;;;;;;;;5027873;28;20056;-72
2022/11/19 09:55:01;;;;;;;22.90;10.88;;;;;;;;;;5032095;28;20081;-71
2022/11/19 09:57:33;;;;;;;51.42;15.90;;;;;;;;;;5021958;28;20042;-70
2022/11/19 10:00:00;;;;;;;15.10;10.27;;;;;;;;;;5027817;28;20495;-73
2022/11/19 10:02:28;;;;;;;18.02;10.02;;;;;;;;;;5020973;28;20069;-73
2022/11/19 10:04:54;;;;;;;16.27;10.25;;;;;;;;;;5021864;28;20061;-73
2022/11/19 10:07:39;;;;;;;15.85;10.60;;;;;;;;;;5026652;28;20060;-70
2022/11/19 10:10:25;;;;;;;16.88;10.40;;;;;;;;;;5008319;28;20349;-73
2022/11/19 10:13:10;;;;;;;15.57;9.75;;;;;;;;;;5009171;28;20058;-71
2022/11/19 10:15:56;;;;;;;14.20;9.60;;;;;;;;;;5015324;28;20144;-71
2022/11/19 10:18:41;;;;;;;14.00;9.50;;;;;;;;;;5022175;28;20061;-71
2022/11/19 10:21:26;;;;;;;20.50;11.60;;;;;;;;;;5024411;28;20517;-70
2022/11/19 10:24:08;;;;;;;96.72;17.17;;;;;;;;;;5024685;28;20190;-71
2022/11/19 10:26:38;;;;;;;51.28;14.93;;;;;;;;;;5017655;28;20598;-73
2022/11/19 10:29:13;;;;;;;20.45;10.25;;;;;;;;;;5004455;28;20061;-71
2022/11/19 10:31:44;;;;;;;32.10;11.02;;;;;;;;;;5005486;28;20592;-70
2022/11/19 10:34:11;;;;;;;14.88;8.85;;;;;;;;;;5020466;28;20577;-70
2022/11/19 10:36:41;;;;;;;16.63;9.88;;;;;;;;;;5025896;28;20500;-71
2022/11/19 10:39:14;;;;;;;14.32;9.35;;;;;;;;;;5021068;28;20113;-71
2022/11/19 10:41:52;;;;;;;15.38;8.63;;;;;;;;;;5005813;28;20055;-72
2022/11/19 10:44:38;;;;;;;17.30;10.23;;;;;;;;;;5009710;28;20069;-72
2022/11/19 10:47:08;;;;;;;103.18;19.75;;;;;;;;;;5016649;28;20466;-72
2022/11/19 10:49:37;;;;;;;30.20;10.07;;;;;;;;;;5024565;28;20100;-70
2022/11/19 10:52:04;;;;;;;15.05;9.07;;;;;;;;;;5022219;28;20516;-71
2022/11/19 10:54:31;;;;;;;36.90;10.52;;;;;;;;;;5020308;28;20058;-69
2022/11/19 10:56:59;;;;;;;15.48;8.57;;;;;;;;;;5021199;28;20049;-71
2022/11/19 10:59:27;;;;;;;15.10;9.30;;;;;;;;;;5023018;28;20201;-72
2022/11/19 11:02:00;;;;;;;15.32;9.25;;;;;;;;;;5020075;28;20484;-70
2022/11/19 11:04:27;;;;;;;26.27;10.10;;;;;;;;;;5008786;28;20057;-72
2022/11/19 11:06:55;;;;;;;21.35;10.20;;;;;;;;;;5024052;28;20081;-71
2022/11/19 11:09:35;;;;;;;14.18;7.82;;;;;;;;;;5012287;28;20363;-71
2022/11/19 11:14:57;;;;;;;16.23;8.07;;;;;;;;;;5019760;28;20053;-69
2022/11/19 11:17:26;;;;;;;13.77;8.52;;;;;;;;;;5007382;28;20512;-68
2022/11/19 11:20:27;;;;;;;12.10;8.35;;;;;;;;;;5011296;28;20122;-71
2022/11/19 11:23:05;;;;;;;13.73;8.55;;;;;;;;;;5044387;28;20276;-68
2022/11/19 11:25:31;;;;;;;12.82;8.38;;;;;;;;;;5041231;28;20136;-70
2022/11/19 11:28:05;;;;;;;12.65;8.90;;;;;;;;;;5057143;28;20053;-69
2022/11/19 11:30:32;;;;;;;14.45;8.98;;;;;;;;;;5050401;28;20586;-71
2022/11/19 11:33:18;;;;;;;13.05;8.25;;;;;;;;;;5049680;28;20523;-68
2022/11/19 11:35:44;;;;;;;11.70;7.78;;;;;;;;;;5043719;28;20084;-69
2022/11/19 11:38:11;;;;;;;11.88;7.13;;;;;;;;;;5050366;28;20099;-68
2022/11/19 11:40:38;;;;;;;12.88;8.75;;;;;;;;;;5045676;28;20050;-70
2022/11/19 11:43:04;;;;;;;13.20;8.48;;;;;;;;;;5041354;28;20053;-72
2022/11/19 11:45:31;;;;;;;13.93;8.63;;;;;;;;;;5042918;28;20060;-71
2022/11/19 11:48:03;;;;;;;13.95;8.32;;;;;;;;;;5041859;28;20511;-70
2022/11/19 11:50:30;;;;;;;11.65;7.10;;;;;;;;;;5041217;28;20119;-72
2022/11/19 11:52:56;;;;;;;12.65;7.85;;;;;;;;;;5051511;28;20049;-70
2022/11/19 11:55:23;;;;;;;13.57;8.60;;;;;;;;;;5058498;28;20136;-69
2022/11/19 11:57:50;;;;;;;11.23;7.10;;;;;;;;;;5028046;28;20064;-71
2022/11/19 12:00:27;;;;;;;12.68;7.60;;;;;;;;;;5028701;28;20186;-72
2022/11/19 12:03:06;;;;;;;10.90;7.53;;;;;;;;;;5041020;28;20062;-70
2022/11/19 12:05:38;;;;;;;10.65;6.97;;;;;;;;;;5036661;28;20049;-70
2022/11/19 12:08:24;;;;;;;12.98;7.65;;;;;;;;;;5023315;28;20140;-68
2022/11/19 12:11:01;;;;;;;11.35;7.10;;;;;;;;;;5021205;28;20105;-69
2022/11/19 12:13:46;;;;;;;10.85;6.93;;;;;;;;;;5021034;28;20054;-70
2022/11/19 12:16:37;;;;;;;9.80;7.00;;;;;;;;;;5022401;28;20111;-70
2022/11/19 12:19:03;;;;;;;10.55;6.57;;;;;;;;;;5024939;28;20054;-69
2022/11/19 12:21:40;;;;;;;41.85;8.20;;;;;;;;;;5022948;28;20054;-69
2022/11/19 12:24:10;;;;;;;32.33;9.40;;;;;;;;;;5022887;28;20140;-69
2022/11/19 12:26:39;;;;;;;81.78;12.90;;;;;;;;;;5022580;28;20060;-71
2022/11/19 12:29:12;;;;;;;9.15;6.30;;;;;;;;;;5022270;28;20117;-70
2022/11/19 12:31:57;;;;;;;19.55;7.65;;;;;;;;;;5040123;28;20053;-71
2022/11/19 12:34:26;;;;;;;9.83;6.07;;;;;;;;;;5022600;28;20124;-69
2022/11/19 12:37:04;;;;;;;9.27;6.05;;;;;;;;;;5023189;28;20050;-71
2022/11/19 12:39:30;;;;;;;9.90;6.15;;;;;;;;;;5022272;28;20062;-70
2022/11/19 12:41:56;;;;;;;10.38;6.38;;;;;;;;;;5019363;28;20109;-72
2022/11/19 12:44:26;;;;;;;9.30;5.72;;;;;;;;;;5004250;28;20053;-71
2022/11/19 12:46:58;;;;;;;9.63;5.70;;;;;;;;;;5021370;28;20050;-70
2022/11/19 12:49:42;;;;;;;7.90;5.63;;;;;;;;;;5013646;28;20142;-71
2022/11/19 12:52:12;;;;;;;13.27;7.50;;;;;;;;;;5003525;28;20514;-72
2022/11/19 12:54:55;;;;;;;6.88;4.57;;;;;;;;;;5021308;28;20045;-71
2022/11/19 12:57:38;;;;;;;8.90;5.53;;;;;;;;;;5021498;28;20076;-69
2022/11/19 13:00:17;;;;;;;17.58;6.95;;;;;;;;;;5018926;28;20142;-70
2022/11/19 13:02:47;;;;;;;21.27;7.18;;;;;;;;;;5022678;28;20056;-70
2022/11/19 13:05:17;;;;;;;10.07;4.32;;;;;;;;;;5026080;28;20607;-68
2022/11/19 13:07:47;;;;;;;6.57;4.22;;;;;;;;;;5021676;28;20057;-69
2022/11/19 13:10:15;;;;;;;8.30;5.40;;;;;;;;;;5021946;28;20488;-72
2022/11/19 13:12:44;;;;;;;5.47;4.35;;;;;;;;;;5028396;28;20053;-67
2022/11/19 13:15:19;;;;;;;6.50;4.50;;;;;;;;;;5022543;28;20502;-72
2022/11/19 13:17:46;;;;;;;;;;;;;;;;;;5020921;28;20112;-71
2022/11/19 13:20:12;;;;;;;;;;;;;;;;;;5016203;28;42861;-69
2022/11/19 13:22:38;;;;;;;;;;;;;;;;;;5021343;28;46572;-71
2022/11/19 13:25:14;;;;;;;32.08;6.53;;;;;;;;;;5005859;28;47113;-69
2022/11/19 13:27:42;;;;;;;10.30;4.72;;;;;;;;;;5037368;28;20161;-71
2022/11/19 13:30:18;;;;;;;10.90;4.93;;;;;;;;;;5013020;28;20542;-70
2022/11/19 13:32:45;;;;;;;7.60;4.35;;;;;;;;;;5024970;28;20516;-68
2022/11/19 13:35:14;;;;;;;6.07;4.20;;;;;;;;;;5025688;28;20061;-69
2022/11/19 13:37:58;;;;;;;6.82;4.18;;;;;;;;;;5025608;28;20137;-68
2022/11/19 13:40:36;;;;;;;5.90;4.03;;;;;;;;;;5025538;28;20054;-68
2022/11/19 13:46:04;;;;;;;19.92;5.38;;;;;;;;;;5025238;28;20050;-71
2022/11/19 13:48:38;;;;;;;5.25;4.07;;;;;;;;;;5015472;28;20461;-71
2022/11/19 13:51:08;;;;;;;5.28;4.00;;;;;;;;;;5037290;28;20050;-71
2022/11/19 13:53:54;;;;;;;8.82;4.35;;;;;;;;;;5005285;28;20054;-71
2022/11/19 13:56:42;;;;;;;5.28;3.53;;;;;;;;;;5005697;28;20065;-69
2022/11/19 13:59:23;;;;;;;5.85;3.97;;;;;;;;;;5006915;28;20050;-71
2022/11/19 14:02:09;;;;;;;6.45;4.43;;;;;;;;;;5003596;28;20069;-69
2022/11/19 14:04:47;;;;;;;15.07;4.85;;;;;;;;;;5020805;28;20178;-71
2022/11/19 14:07:19;;;;;;;32.63;7.38;;;;;;;;;;5014609;28;20054;-71
2022/11/19 14:09:49;;;;;;;5.88;4.07;;;;;;;;;;5024393;28;20507;-71
2022/11/19 14:12:35;;;;;;;20.05;5.30;;;;;;;;;;5055623;28;20058;-69
2022/11/19 14:27:31;;;;;;;6.03;3.72;;;;;;;;;;5023057;28;20058;-70
2022/11/19 14:30:08;;;;;;;7.93;3.95;;;;;;;;;;5019944;28;20504;-70
2022/11/19 14:32:34;;;;;;;6.60;4.47;;;;;;;;;;5005184;28;20512;-69
2022/11/19 14:35:00;;;;;;;6.10;4.35;;;;;;;;;;5004647;28;20556;-68
2022/11/19 14:37:32;;;;;;;42.70;8.00;;;;;;;;;;5013909;28;20405;-71
2022/11/19 14:40:01;;;;;;;5.82;3.97;;;;;;;;;;5024959;28;20046;-71
2022/11/19 14:42:27;;;;;;;6.25;4.00;;;;;;;;;;5024806;28;20050;-70
2022/11/19 14:44:56;;;;;;;10.38;3.97;;;;;;;;;;5008665;28;20055;-70
2022/11/19 14:47:23;;;;;;;6.88;4.32;;;;;;;;;;5005115;28;20104;-71
2022/11/19 14:49:58;;;;;;;7.28;4.70;;;;;;;;;;5004033;28;20133;-68
2022/11/19 14:52:29;;;;;;;6.55;4.20;;;;;;;;;;5022202;28;20053;-68
2022/11/19 14:54:58;;;;;;;13.65;4.88;;;;;;;;;;5024302;28;20057;-72
2022/11/19 14:57:36;;;;;;;21.77;5.55;;;;;;;;;;5021729;28;20076;-68
2022/11/19 15:00:04;;;;;;;50.28;9.20;;;;;;;;;;5004634;28;20509;-71
2022/11/19 15:02:33;;;;;;;23.33;6.22;;;;;;;;;;5012558;28;20050;-72
2022/11/19 15:05:05;;;;;;;13.32;4.55;;;;;;;;;;5023623;28;20101;-69
2022/11/19 15:07:32;;;;;;;8.45;4.55;;;;;;;;;;5024269;28;20077;-69
2022/11/19 15:10:21;;;;;;;6.40;4.03;;;;;;;;;;5023841;28;20045;-73
2022/11/19 15:12:49;;;;;;;8.48;4.70;;;;;;;;;;5023781;28;20120;-71
2022/11/19 15:15:19;;;;;;;7.38;3.97;;;;;;;;;;5023802;28;20061;-69
2022/11/19 15:17:46;;;;;;;15.00;5.60;;;;;;;;;;5024381;28;20499;-70
2022/11/19 15:20:20;;;;;;;109.05;15.18;;;;;;;;;;5023451;28;20049;-69